Time;durP1;ratioP1;P1;durP2;ratioP2;P2;SDS_P1;SDS_P2;PMS_P1;PMS_P2;Temp;Humidity;BMP_temperature;BMP_pressure;BME280_temperature;BME280_humidity;BME280_pressure;Samples;Min_cycle;Max_cycle;Signal;HPM_P1;HPM_P2
2023/03/06 00:01:50;;;;;;;1.97;0.67;;;3.40;99.90;;;;;;4976084;28;20031;-69
2023/03/06 00:04:16;;;;;;;2.53;0.98;;;3.40;99.90;;;;;;4989350;28;20074;-69
2023/03/06 00:06:42;;;;;;;1.45;0.50;;;3.40;99.90;;;;;;4978568;28;20482;-68
2023/03/06 00:09:08;;;;;;;2.27;0.50;;;3.50;99.90;;;;;;4979502;28;20054;-68
2023/03/06 00:11:37;;;;;;;3.60;0.60;;;3.50;99.90;;;;;;4979779;28;20046;-69
2023/03/06 00:14:02;;;;;;;2.22;0.80;;;3.50;99.90;;;;;;4995798;28;20046;-68
2023/03/06 00:16:28;;;;;;;2.10;0.60;;;3.50;99.90;;;;;;4963308;28;20485;-69
2023/03/06 00:18:54;;;;;;;1.63;0.77;;;3.50;99.90;;;;;;4979147;28;20048;-68
2023/03/06 00:21:19;;;;;;;2.67;0.77;;;3.50;99.90;;;;;;4981442;28;20035;-68
2023/03/06 00:23:50;;;;;;;0.73;0.43;;;3.50;99.90;;;;;;5002054;28;20128;-68
2023/03/06 00:26:15;;;;;;;1.27;0.47;;;3.50;99.90;;;;;;4981024;28;20472;-68
2023/03/06 00:28:44;;;;;;;2.30;1.00;;;3.40;99.90;;;;;;4977400;28;20121;-68
2023/03/06 00:31:10;;;;;;;1.63;0.73;;;3.40;99.90;;;;;;4981568;28;20077;-68
2023/03/06 00:33:36;;;;;;;4.20;1.00;;;3.30;99.90;;;;;;4992537;28;20042;-68
2023/03/06 00:36:04;;;;;;;1.17;0.68;;;3.40;99.90;;;;;;4976322;28;20470;-68
2023/03/06 00:38:34;;;;;;;2.15;0.55;;;3.40;99.90;;;;;;4994957;28;20673;-68
2023/03/06 00:41:12;;;;;;;1.55;0.60;;;3.40;99.90;;;;;;4977979;28;20046;-68
2023/03/06 00:43:38;;;;;;;2.53;0.90;;;3.40;99.90;;;;;;4979942;28;20062;-68
2023/03/06 00:46:04;;;;;;;1.35;0.60;;;3.40;99.90;;;;;;4961889;28;20045;-68
2023/03/06 00:48:32;;;;;;;7.95;0.93;;;3.40;99.90;;;;;;4977691;28;20046;-69
2023/03/06 00:50:58;;;;;;;2.55;0.80;;;3.40;99.90;;;;;;4980183;28;20165;-68
2023/03/06 00:53:24;;;;;;;3.77;0.60;;;3.40;99.90;;;;;;4981039;28;20046;-69
2023/03/06 00:55:50;;;;;;;3.57;0.60;;;3.40;99.90;;;;;;4965913;28;20046;-68
2023/03/06 00:58:16;;;;;;;1.80;0.90;;;3.40;99.90;;;;;;4978654;28;20074;-68
2023/03/06 01:00:42;;;;;;;2.95;0.70;;;3.40;99.90;;;;;;4977525;28;20097;-68
2023/03/06 01:03:08;;;;;;;0.90;0.43;;;3.40;99.90;;;;;;4982600;28;20034;-68
2023/03/06 01:05:35;;;;;;;3.17;0.60;;;3.40;99.90;;;;;;4977852;28;20482;-68
2023/03/06 01:08:02;;;;;;;1.63;0.60;;;3.50;99.90;;;;;;4981516;28;20060;-69
2023/03/06 01:10:27;;;;;;;2.25;0.88;;;3.40;99.90;;;;;;4976279;28;20840;-69
2023/03/06 01:12:57;;;;;;;1.93;0.70;;;3.50;99.90;;;;;;4978162;28;20042;-68
2023/03/06 01:15:25;;;;;;;1.88;0.55;;;3.50;99.90;;;;;;4964147;28;20414;-68
2023/03/06 01:17:53;;;;;;;4.43;0.67;;;3.50;99.90;;;;;;4997444;28;20113;-68
2023/03/06 01:20:18;;;;;;;3.65;0.57;;;3.50;99.90;;;;;;4983729;28;20049;-73
2023/03/06 01:22:45;;;;;;;1.40;0.30;;;3.50;99.90;;;;;;4961006;28;20035;-68
2023/03/06 01:25:10;;;;;;;1.98;0.40;;;3.40;99.90;;;;;;4998165;28;20064;-68
2023/03/06 01:27:36;;;;;;;1.10;0.40;;;3.40;99.90;;;;;;4981058;28;20050;-68
2023/03/06 01:30:03;;;;;;;1.03;0.63;;;3.40;99.90;;;;;;4981684;28;20241;-68
2023/03/06 01:32:30;;;;;;;0.82;0.40;;;3.40;99.90;;;;;;4981636;28;20276;-69
2023/03/06 01:34:56;;;;;;;1.00;0.43;;;3.40;99.90;;;;;;4980476;28;20039;-69
2023/03/06 01:37:22;;;;;;;2.07;0.57;;;3.40;99.90;;;;;;4967816;28;20042;-69
2023/03/06 01:39:50;;;;;;;0.80;0.40;;;3.30;99.90;;;;;;4996746;28;20481;-70
2023/03/06 01:42:16;;;;;;;3.40;0.52;;;3.40;99.90;;;;;;4979583;28;20038;-69
2023/03/06 01:45:03;;;;;;;2.63;0.43;;;3.30;99.90;;;;;;4968227;28;20693;-69
2023/03/06 01:47:30;;;;;;;1.55;0.60;;;3.40;99.90;;;;;;4998233;28;20384;-69
2023/03/06 01:49:57;;;;;;;3.60;0.70;;;3.40;99.90;;;;;;4982165;28;20072;-69
2023/03/06 01:52:29;;;;;;;1.77;0.63;;;3.40;99.90;;;;;;4978515;28;20297;-68
2023/03/06 01:55:09;;;;;;;1.33;0.50;;;3.40;99.90;;;;;;4996009;28;20046;-67
2023/03/06 01:57:42;;;;;;;0.90;0.65;;;3.40;99.90;;;;;;4980494;28;20061;-67
2023/03/06 02:00:14;;;;;;;0.63;0.40;;;3.40;99.90;;;;;;4979136;28;20551;-70
2023/03/06 02:02:44;;;;;;;2.72;0.40;;;3.40;99.90;;;;;;4980020;28;20161;-68
2023/03/06 02:05:10;;;;;;;0.55;0.30;;;3.40;99.90;;;;;;4979945;28;20410;-69
2023/03/06 02:07:38;;;;;;;1.42;0.75;;;3.40;99.90;;;;;;4998858;28;20046;-68
2023/03/06 02:10:05;;;;;;;1.13;0.38;;;3.50;99.90;;;;;;4979744;28;20109;-68
2023/03/06 02:12:31;;;;;;;;;;;3.40;99.90;;;;;;4979403;28;20182;-68
2023/03/06 02:14:57;;;;;;;1.77;0.60;;;3.50;99.90;;;;;;4976476;28;20016;-69
2023/03/06 02:17:23;;;;;;;0.82;0.40;;;3.40;99.90;;;;;;4973537;28;20053;-68
2023/03/06 02:20:17;;;;;;;0.65;0.20;;;3.50;99.90;;;;;;4980620;28;20117;-69
2023/03/06 02:22:52;;;;;;;0.88;0.40;;;3.50;99.90;;;;;;4971903;28;20510;-69
2023/03/06 02:25:25;;;;;;;0.43;0.20;;;3.50;99.90;;;;;;4974409;28;20442;-69
2023/03/06 02:27:52;;;;;;;0.13;0.13;;;3.50;99.90;;;;;;4981248;28;20125;-69
2023/03/06 02:30:18;;;;;;;0.85;0.30;;;3.40;99.90;;;;;;4964505;28;20042;-69
2023/03/06 02:32:46;;;;;;;0.30;0.20;;;3.50;99.90;;;;;;4979176;28;20049;-69
2023/03/06 02:35:22;;;;;;;0.57;0.30;;;3.40;99.90;;;;;;4994675;28;20066;-69
2023/03/06 02:37:51;;;;;;;0.40;0.20;;;3.40;99.90;;;;;;4980450;28;20042;-69
2023/03/06 02:40:17;;;;;;;;;;;3.30;99.90;;;;;;4980372;28;20042;-69
2023/03/06 02:42:55;;;;;;;0.38;0.10;;;3.30;99.90;;;;;;4996186;28;20013;-69
2023/03/06 02:45:35;;;;;;;0.57;0.17;;;3.30;99.90;;;;;;4992756;28;20129;-68
2023/03/06 02:48:01;;;;;;;1.45;0.30;;;3.30;99.90;;;;;;4979865;28;20199;-69
2023/03/06 02:50:27;;;;;;;0.60;0.30;;;3.30;99.90;;;;;;4975218;28;20057;-69
2023/03/06 02:52:53;;;;;;;0.55;0.30;;;3.30;99.90;;;;;;4981134;28;20039;-69
2023/03/06 02:55:19;;;;;;;1.03;0.37;;;3.30;99.90;;;;;;4981610;28;20050;-69
2023/03/06 02:57:47;;;;;;;0.77;0.30;;;3.30;99.90;;;;;;4965936;28;20648;-69
2023/03/06 03:00:14;;;;;;;0.35;0.20;;;3.30;99.90;;;;;;4979223;28;20052;-69
2023/03/06 03:02:40;;;;;;;;;;;3.30;99.90;;;;;;4973574;28;20046;-69
2023/03/06 03:05:08;;;;;;;0.17;0.10;;;3.20;99.90;;;;;;4994952;28;20037;-69
2023/03/06 03:07:35;;;;;;;0.10;0.10;;;3.20;99.90;;;;;;4978575;28;20570;-70
2023/03/06 03:10:00;;;;;;;0.40;0.20;;;3.10;99.90;;;;;;4963409;28;20138;-68
2023/03/06 03:12:27;;;;;;;0.40;0.10;;;3.10;99.90;;;;;;4975951;28;20349;-68
2023/03/06 03:14:55;;;;;;;0.20;0.10;;;3.10;99.90;;;;;;4979484;28;20437;-68
2023/03/06 03:17:22;;;;;;;0.40;0.20;;;3.00;99.90;;;;;;4971965;28;20043;-68
2023/03/06 03:19:48;;;;;;;2.63;0.30;;;2.90;99.90;;;;;;4981316;28;20143;-69
2023/03/06 03:22:14;;;;;;;0.30;0.20;;;2.90;99.90;;;;;;4980123;28;20639;-69
2023/03/06 03:24:41;;;;;;;0.55;0.20;;;2.80;99.90;;;;;;4975224;28;20041;-69
2023/03/06 03:27:07;;;;;;;0.50;0.10;;;2.70;99.90;;;;;;4983778;28;20065;-69
2023/03/06 03:29:33;;;;;;;;;;;2.70;99.90;;;;;;4980781;28;20053;-68
2023/03/06 03:31:59;;;;;;;0.75;0.30;;;2.60;99.90;;;;;;4993074;28;19918;-69
2023/03/06 03:34:24;;;;;;;0.83;0.30;;;2.50;99.90;;;;;;4978373;28;20604;-68
2023/03/06 03:36:50;;;;;;;0.67;0.37;;;2.50;99.90;;;;;;4978405;28;20517;-68
2023/03/06 03:39:19;;;;;;;0.40;0.20;;;2.50;99.90;;;;;;4979449;28;20403;-68
2023/03/06 03:41:44;;;;;;;2.65;0.43;;;2.50;99.90;;;;;;4979404;28;20050;-68
2023/03/06 03:44:11;;;;;;;0.70;0.30;;;2.40;99.90;;;;;;4978088;28;20703;-69
2023/03/06 03:46:39;;;;;;;0.32;0.20;;;2.40;99.90;;;;;;4981141;28;20201;-69
2023/03/06 03:49:05;;;;;;;0.43;0.20;;;2.50;99.90;;;;;;4981471;28;20054;-68
2023/03/06 03:51:31;;;;;;;1.97;0.40;;;2.40;99.90;;;;;;4983689;28;20501;-68
2023/03/06 03:53:57;;;;;;;0.75;0.40;;;2.40;99.90;;;;;;4980095;28;20117;-69
2023/03/06 03:56:23;;;;;;;0.93;0.57;;;2.50;99.90;;;;;;4964179;28;20495;-69
2023/03/06 03:58:50;;;;;;;1.67;0.40;;;2.40;99.90;;;;;;4982003;28;20053;-69
2023/03/06 04:01:15;;;;;;;0.95;0.40;;;2.50;99.90;;;;;;4978443;28;20109;-69
2023/03/06 04:03:42;;;;;;;0.73;0.30;;;2.50;99.90;;;;;;4977905;28;20116;-69
2023/03/06 04:06:14;;;;;;;0.22;0.20;;;2.40;99.90;;;;;;4964512;28;20088;-68
2023/03/06 04:08:39;;;;;;;0.43;0.30;;;2.40;99.90;;;;;;4983105;28;20161;-69
2023/03/06 04:11:05;;;;;;;0.70;0.17;;;2.40;99.90;;;;;;4979902;28;20171;-69
2023/03/06 04:13:31;;;;;;;0.73;0.30;;;2.50;99.90;;;;;;4999204;28;20482;-68
2023/03/06 04:15:58;;;;;;;0.43;0.20;;;2.40;99.90;;;;;;4980410;28;20110;-69
2023/03/06 04:18:24;;;;;;;0.65;0.35;;;2.40;99.90;;;;;;4993414;28;20542;-69
2023/03/06 04:20:50;;;;;;;0.83;0.40;;;2.50;99.90;;;;;;4982047;28;20212;-68
2023/03/06 04:23:17;;;;;;;1.48;0.30;;;2.50;99.90;;;;;;4975427;28;20046;-69
2023/03/06 04:25:46;;;;;;;0.30;0.20;;;2.50;99.90;;;;;;4981159;28;20038;-69
2023/03/06 04:28:12;;;;;;;0.68;0.40;;;2.50;99.90;;;;;;4985304;28;20053;-69
2023/03/06 04:30:38;;;;;;;1.05;0.38;;;2.40;99.90;;;;;;4979367;28;20043;-69
2023/03/06 04:33:04;;;;;;;0.50;0.20;;;2.40;99.90;;;;;;4976795;28;20061;-69
2023/03/06 04:35:30;;;;;;;0.40;0.20;;;2.40;99.90;;;;;;4978266;28;20049;-69
2023/03/06 04:37:58;;;;;;;1.07;0.33;;;2.40;99.90;;;;;;4958077;28;20054;-69
2023/03/06 04:40:27;;;;;;;0.22;0.22;;;2.40;99.90;;;;;;4978386;28;20035;-69
2023/03/06 04:42:57;;;;;;;0.50;0.20;;;2.50;99.90;;;;;;4975071;28;20155;-69
2023/03/06 04:45:24;;;;;;;2.25;0.45;;;2.50;99.90;;;;;;4978120;28;20050;-69
2023/03/06 04:47:50;;;;;;;1.25;0.43;;;2.40;99.90;;;;;;4981093;28;20081;-69
2023/03/06 04:50:17;;;;;;;6.47;0.80;;;2.50;99.90;;;;;;4962219;28;20054;-69
2023/03/06 04:52:43;;;;;;;1.52;0.50;;;2.40;99.90;;;;;;4967867;28;20299;-69
2023/03/06 04:55:11;;;;;;;2.90;0.70;;;2.50;99.90;;;;;;5017115;23;20541;-83
2023/03/06 04:57:39;;;;;;;0.80;0.40;;;2.50;99.90;;;;;;5014130;28;20530;-84
2023/03/06 05:00:13;;;;;;;0.90;0.40;;;2.50;99.90;;;;;;5013986;28;20042;-83
2023/03/06 05:02:43;;;;;;;2.53;0.80;;;2.50;99.90;;;;;;5000693;28;20087;-86
2023/03/06 05:05:21;;;;;;;0.93;0.30;;;2.50;99.90;;;;;;5005862;28;20037;-84
2023/03/06 05:07:47;;;;;;;1.55;0.50;;;2.50;99.90;;;;;;5052843;28;20084;-85
2023/03/06 05:10:16;;;;;;;1.30;0.40;;;2.40;99.90;;;;;;5035467;28;20041;-84
2023/03/06 05:12:46;;;;;;;0.50;0.30;;;2.50;99.90;;;;;;5035533;28;20544;-84
2023/03/06 05:15:14;;;;;;;0.35;0.20;;;2.40;99.90;;;;;;5035142;28;20045;-81
2023/03/06 05:17:40;;;;;;;0.52;0.30;;;2.40;99.90;;;;;;5036013;28;20065;-84
2023/03/06 05:20:08;;;;;;;2.73;0.40;;;2.40;99.90;;;;;;5053294;28;20056;-84
2023/03/06 05:22:37;;;;;;;0.80;0.50;;;2.40;99.90;;;;;;5038597;28;20131;-84
2023/03/06 05:25:05;;;;;;;1.55;0.50;;;2.50;99.90;;;;;;5043004;28;20033;-84
2023/03/06 05:27:31;;;;;;;0.47;0.20;;;2.40;99.90;;;;;;5033749;28;20041;-84
2023/03/06 05:30:00;;;;;;;0.60;0.20;;;2.30;99.90;;;;;;5017189;28;20137;-84
2023/03/06 05:32:29;;;;;;;1.42;0.40;;;2.20;99.90;;;;;;5033728;28;20049;-85
2023/03/06 05:34:59;;;;;;;0.43;0.30;;;2.20;99.90;;;;;;5037288;28;20045;-84
2023/03/06 05:37:25;;;;;;;0.80;0.40;;;2.20;99.90;;;;;;5019446;28;20046;-84
2023/03/06 05:39:51;;;;;;;0.83;0.40;;;2.10;99.90;;;;;;5019939;28;20064;-83
2023/03/06 05:42:18;;;;;;;0.50;0.23;;;2.10;99.90;;;;;;5052687;28;20095;-85
2023/03/06 05:44:46;;;;;;;1.27;0.40;;;2.00;99.90;;;;;;5020265;28;20049;-85
2023/03/06 05:47:25;;;;;;;1.42;0.55;;;2.00;99.90;;;;;;5034380;28;20053;-80
2023/03/06 05:49:51;;;;;;;1.33;0.60;;;2.00;99.90;;;;;;5028657;28;20037;-84
2023/03/06 05:52:17;;;;;;;1.73;0.77;;;1.90;99.90;;;;;;5029339;28;20041;-83
2023/03/06 05:54:49;;;;;;;1.15;0.43;;;2.00;99.90;;;;;;5010053;28;20045;-84
2023/03/06 05:57:17;;;;;;;1.80;0.50;;;1.90;99.90;;;;;;5028449;28;20049;-83
2023/03/06 05:59:45;;;;;;;2.10;0.80;;;1.90;99.90;;;;;;5009881;28;20390;-83
2023/03/06 06:02:13;;;;;;;9.80;3.42;;;1.90;99.90;;;;;;5030433;28;20064;-84
2023/03/06 06:04:41;;;;;;;10.65;4.97;;;1.90;99.90;;;;;;5029820;28;20578;-84
2023/03/06 06:07:07;;;;;;;7.13;3.20;;;1.90;99.90;;;;;;5012092;28;20216;-82
2023/03/06 06:09:36;;;;;;;2.95;1.60;;;1.90;99.90;;;;;;5012150;28;20443;-83
2023/03/06 06:12:02;;;;;;;2.47;1.35;;;1.90;99.90;;;;;;5011585;28;20049;-83
2023/03/06 06:14:34;;;;;;;2.58;1.13;;;1.90;99.90;;;;;;5013920;28;20075;-83
2023/03/06 06:17:03;;;;;;;2.08;1.00;;;1.90;99.90;;;;;;5011010;28;20049;-83
2023/03/06 06:19:32;;;;;;;3.17;1.70;;;1.80;99.90;;;;;;5030391;28;20048;-83
2023/03/06 06:21:58;;;;;;;3.25;1.60;;;1.80;99.90;;;;;;5031644;28;20509;-83
2023/03/06 06:24:27;;;;;;;2.30;1.10;;;1.80;99.90;;;;;;5012652;28;20073;-83
2023/03/06 06:26:57;;;;;;;4.38;1.50;;;1.70;99.90;;;;;;5028859;28;20100;-84
2023/03/06 06:29:27;;;;;;;3.35;1.60;;;1.70;99.90;;;;;;5031468;28;20506;-84
2023/03/06 06:31:54;;;;;;;2.72;1.10;;;1.70;99.90;;;;;;5025161;28;20565;-83
2023/03/06 06:34:23;;;;;;;2.45;1.20;;;1.70;99.90;;;;;;5012972;28;20062;-83
2023/03/06 06:36:50;;;;;;;2.03;1.02;;;1.70;99.90;;;;;;5031702;28;20124;-83
2023/03/06 06:39:29;;;;;;;;;;;1.60;99.90;;;;;;5024281;28;20495;-84
2023/03/06 06:42:01;;;;;;;1.55;0.63;;;1.60;99.90;;;;;;5029930;28;19917;-83
2023/03/06 06:44:26;;;;;;;2.85;0.88;;;1.60;99.90;;;;;;5029622;28;20065;-82
2023/03/06 06:46:54;;;;;;;1.57;0.87;;;1.50;99.90;;;;;;5026781;28;20045;-83
2023/03/06 06:49:26;;;;;;;1.70;0.77;;;1.60;99.90;;;;;;5023406;28;20049;-83
2023/03/06 06:51:52;;;;;;;3.30;0.90;;;1.60;99.90;;;;;;5028414;28;20099;-83
2023/03/06 06:54:19;;;;;;;5.57;1.10;;;1.50;99.90;;;;;;5021870;28;20041;-83
2023/03/06 06:56:46;;;;;;;1.75;0.90;;;1.60;99.90;;;;;;5031959;28;20042;-84
2023/03/06 06:59:15;;;;;;;1.58;0.70;;;1.60;99.90;;;;;;5031618;28;20057;-83
2023/03/06 07:01:41;;;;;;;1.58;0.73;;;1.60;99.90;;;;;;5029584;28;20052;-83
2023/03/06 07:04:18;;;;;;;2.87;0.73;;;1.60;99.90;;;;;;5012381;28;20049;-82
2023/03/06 07:06:44;;;;;;;0.98;0.40;;;1.60;99.90;;;;;;5014415;28;20041;-82
2023/03/06 07:09:19;;;;;;;2.15;0.80;;;1.60;99.90;;;;;;5008861;28;20063;-83
2023/03/06 07:11:47;;;;;;;1.48;0.52;;;1.60;99.90;;;;;;5030156;28;20115;-84
2023/03/06 07:14:13;;;;;;;2.03;0.90;;;1.70;99.90;;;;;;5026753;28;20091;-83
2023/03/06 07:16:39;;;;;;;3.70;1.33;;;1.70;99.90;;;;;;5031621;28;20072;-84
2023/03/06 07:19:10;;;;;;;3.83;1.27;;;1.70;99.90;;;;;;5018246;28;20037;-83
2023/03/06 07:21:36;;;;;;;7.47;2.53;;;1.80;99.90;;;;;;5040662;28;20057;-85
2023/03/06 07:24:07;;;;;;;2.77;1.03;;;1.90;99.90;;;;;;5022873;28;20041;-84
2023/03/06 07:26:38;;;;;;;2.22;1.05;;;1.90;99.90;;;;;;5039458;28;20444;-84
2023/03/06 07:29:06;;;;;;;2.80;1.50;;;2.00;99.90;;;;;;5041956;28;20072;-83
2023/03/06 07:31:32;;;;;;;3.17;1.25;;;2.10;99.90;;;;;;5039646;28;20127;-85
2023/03/06 07:33:58;;;;;;;2.87;1.40;;;2.10;99.90;;;;;;5042391;28;20081;-83
2023/03/06 07:36:23;;;;;;;2.10;1.10;;;2.20;99.90;;;;;;5022221;28;20052;-85
2023/03/06 07:38:51;;;;;;;2.50;1.20;;;2.30;99.90;;;;;;5034562;28;20045;-83
2023/03/06 07:41:19;;;;;;;6.38;1.50;;;2.40;99.90;;;;;;5029816;28;20044;-83
2023/03/06 07:43:48;;;;;;;4.45;1.52;;;2.40;99.90;;;;;;5031885;28;20502;-83
2023/03/06 07:46:16;;;;;;;2.38;1.50;;;2.50;99.90;;;;;;5025485;28;20034;-83
2023/03/06 07:48:42;;;;;;;2.23;1.40;;;2.50;99.90;;;;;;5029328;28;20057;-83
2023/03/06 07:51:13;;;;;;;2.93;1.33;;;2.50;99.90;;;;;;5010040;28;20038;-83
2023/03/06 07:53:42;;;;;;;3.30;1.52;;;2.60;99.90;;;;;;5018591;28;20478;-83
2023/03/06 07:56:11;;;;;;;2.53;1.27;;;2.60;99.90;;;;;;5014051;28;20041;-83
2023/03/06 07:58:43;;;;;;;2.42;1.10;;;2.60;99.90;;;;;;5015207;28;20037;-82
2023/03/06 08:01:14;;;;;;;3.90;0.98;;;2.70;99.90;;;;;;5026779;28;20076;-84
2023/03/06 08:03:40;;;;;;;3.25;0.90;;;2.80;99.90;;;;;;5010406;28;20057;-84
2023/03/06 08:06:12;;;;;;;2.50;1.08;;;2.90;99.90;;;;;;5029186;28;20486;-83
2023/03/06 08:08:39;;;;;;;3.42;0.90;;;2.90;99.90;;;;;;5024020;28;20041;-82
2023/03/06 08:11:06;;;;;;;1.33;0.70;;;3.00;99.90;;;;;;5025655;28;20115;-83
2023/03/06 08:13:31;;;;;;;;;;;2.90;99.90;;;;;;5013010;28;20128;-84
2023/03/06 08:15:58;;;;;;;1.85;0.80;;;3.10;99.90;;;;;;5025582;28;19959;-83
2023/03/06 08:18:25;;;;;;;5.05;1.13;;;3.10;99.90;;;;;;5006414;28;20057;-83
2023/03/06 08:20:59;;;;;;;;;;;3.10;99.90;;;;;;5028702;28;20068;-82
2023/03/06 08:23:25;;;;;;;1.88;0.70;;;3.10;99.90;;;;;;5012451;28;20370;-83
2023/03/06 08:26:04;;;;;;;1.97;0.77;;;3.00;99.90;;;;;;5011779;28;20034;-84
2023/03/06 08:28:29;;;;;;;1.08;0.50;;;3.10;99.90;;;;;;5020769;28;20045;-85
2023/03/06 08:31:06;;;;;;;4.40;0.93;;;3.10;99.90;;;;;;5011923;28;20041;-83
2023/03/06 08:33:31;;;;;;;2.00;0.73;;;3.20;99.90;;;;;;5029171;28;20074;-83
2023/03/06 08:35:57;;;;;;;1.57;1.00;;;3.20;99.90;;;;;;5024501;28;20054;-81
2023/03/06 08:38:23;;;;;;;6.07;1.10;;;3.30;99.90;;;;;;5022455;28;20040;-83
2023/03/06 08:40:48;;;;;;;2.47;1.10;;;3.40;99.90;;;;;;5020245;28;20061;-83
2023/03/06 08:43:14;;;;;;;1.70;0.53;;;3.40;99.90;;;;;;5023448;28;20041;-84
2023/03/06 08:45:40;;;;;;;1.73;0.70;;;3.50;99.90;;;;;;5026777;28;20128;-84
2023/03/06 08:48:05;;;;;;;1.93;0.70;;;3.60;99.90;;;;;;5022336;28;20052;-83
2023/03/06 08:50:31;;;;;;;3.17;0.80;;;3.70;99.90;;;;;;5016921;28;20804;-84
2023/03/06 08:52:57;;;;;;;2.47;0.70;;;3.80;99.90;;;;;;5001024;28;20541;-82
2023/03/06 08:55:27;;;;;;;2.00;0.77;;;3.90;99.90;;;;;;5024914;28;20109;-82
2023/03/06 08:57:53;;;;;;;2.45;0.40;;;3.90;99.90;;;;;;5027960;28;20057;-83
2023/03/06 09:00:19;;;;;;;1.33;0.57;;;4.00;99.90;;;;;;5019125;28;20046;-84
2023/03/06 09:02:44;;;;;;;0.27;0.20;;;4.00;99.90;;;;;;5029239;28;20103;-84
2023/03/06 09:05:10;;;;;;;1.20;0.40;;;4.00;99.90;;;;;;5026312;28;20302;-84
2023/03/06 09:07:36;;;;;;;0.55;0.35;;;4.10;99.90;;;;;;5052511;28;20479;-84
2023/03/06 09:10:02;;;;;;;0.60;0.20;;;4.20;99.90;;;;;;5047771;28;20129;-84
2023/03/06 09:12:28;;;;;;;5.07;0.50;;;4.20;99.90;;;;;;5010199;28;20389;-83
2023/03/06 09:14:53;;;;;;;2.20;0.40;;;4.40;99.90;;;;;;5020915;28;20052;-80
2023/03/06 09:17:19;;;;;;;1.43;0.50;;;4.30;99.90;;;;;;5027470;28;20163;-84
2023/03/06 09:19:44;;;;;;;2.43;0.60;;;4.40;99.90;;;;;;5023124;28;20188;-83
2023/03/06 09:22:10;;;;;;;1.70;0.50;;;4.50;99.90;;;;;;5035657;28;20101;-83
2023/03/06 09:24:43;;;;;;;2.00;0.97;;;4.60;99.90;;;;;;5024859;28;20368;-85
2023/03/06 09:27:09;;;;;;;1.20;0.35;;;4.70;99.90;;;;;;5024857;28;20056;-85
2023/03/06 09:29:34;;;;;;;2.13;0.60;;;4.80;99.90;;;;;;5020040;28;20068;-83
2023/03/06 09:32:02;;;;;;;1.20;0.50;;;4.80;99.90;;;;;;5021064;28;20050;-83
2023/03/06 09:34:30;;;;;;;1.70;0.40;;;4.90;99.90;;;;;;5028259;28;20041;-84
2023/03/06 09:37:00;;;;;;;1.60;0.50;;;5.00;99.90;;;;;;5027467;28;20072;-85
2023/03/06 09:39:29;;;;;;;1.98;0.60;;;5.00;99.90;;;;;;5027205;28;20084;-83
2023/03/06 09:41:57;;;;;;;1.33;0.40;;;5.00;99.90;;;;;;5027164;28;20064;-83
2023/03/06 09:44:31;;;;;;;1.10;0.40;;;5.00;99.90;;;;;;5029698;28;20137;-84
2023/03/06 09:47:30;;;;;;;1.90;0.40;;;5.00;99.90;;;;;;5033587;28;20056;-84
2023/03/06 09:50:27;;;;;;;3.08;0.50;;;5.00;99.90;;;;;;5029085;28;20049;-83
2023/03/06 09:53:14;;;;;;;3.53;0.50;;;5.00;99.90;;;;;;5032628;28;20049;-84
2023/03/06 09:55:40;;;;;;;1.35;0.60;;;5.00;99.90;;;;;;5012476;28;20494;-84
2023/03/06 09:58:08;;;;;;;1.38;0.40;;;5.00;99.90;;;;;;5027240;28;20057;-83
2023/03/06 10:01:03;;;;;;;1.25;0.60;;;5.10;99.90;;;;;;5029203;28;20521;-83
2023/03/06 10:03:45;;;;;;;1.77;0.40;;;5.20;99.90;;;;;;5044626;28;20406;-85
2023/03/06 10:06:21;;;;;;;1.52;0.50;;;5.30;99.90;;;;;;5032798;28;20037;-84
2023/03/06 10:09:23;;;;;;;2.38;0.57;;;5.40;99.90;;;;;;5020776;28;20037;-83
2023/03/06 10:12:05;;;;;;;0.70;0.30;;;5.50;99.90;;;;;;5037055;28;20034;-84
2023/03/06 10:14:57;;;;;;;3.28;0.45;;;5.60;99.90;;;;;;5029631;28;20038;-84
2023/03/06 10:17:25;;;;;;;2.20;0.30;;;5.70;99.90;;;;;;5003975;28;20055;-82
2023/03/06 10:19:51;;;;;;;1.35;0.57;;;5.80;99.90;;;;;;5009939;28;20045;-84
2023/03/06 10:22:42;;;;;;;0.13;0.13;;;5.90;99.90;;;;;;5023821;28;20125;-85
2023/03/06 10:25:31;;;;;;;2.47;0.52;;;6.00;99.90;;;;;;5028609;28;20105;-83
2023/03/06 10:28:27;;;;;;;1.92;0.50;;;6.10;99.90;;;;;;5032308;28;20475;-83
2023/03/06 10:31:11;;;;;;;0.88;0.40;;;6.10;99.90;;;;;;5018822;28;20072;-83
2023/03/06 10:33:43;;;;;;;5.32;1.20;;;5.90;99.90;;;;;;5024673;28;20099;-82
2023/03/06 10:36:20;;;;;;;2.65;0.30;;;5.80;99.90;;;;;;5026220;28;20069;-84
2023/03/06 10:38:49;;;;;;;2.20;0.25;;;5.70;99.90;;;;;;5026517;28;20045;-83
2023/03/06 10:41:38;;;;;;;2.28;0.35;;;5.60;99.90;;;;;;5017611;28;20100;-83
2023/03/06 10:44:04;;;;;;;0.80;0.32;;;5.40;99.90;;;;;;5024583;28;20096;-84
2023/03/06 10:46:38;;;;;;;0.73;0.27;;;5.30;99.90;;;;;;5026590;28;20113;-85
2023/03/06 10:49:23;;;;;;;1.95;0.50;;;5.30;99.90;;;;;;5027155;28;20084;-84
2023/03/06 10:52:11;;;;;;;1.02;0.20;;;5.20;99.90;;;;;;5029225;28;20045;-85
2023/03/06 10:54:39;;;;;;;1.25;0.20;;;5.20;99.90;;;;;;5030574;28;20533;-83
2023/03/06 10:57:26;;;;;;;0.80;0.20;;;5.10;99.90;;;;;;5024127;23;20380;-66
2023/03/06 10:59:53;;;;;;;1.33;0.35;;;5.10;99.90;;;;;;5012587;28;20065;-67
2023/03/06 11:02:30;;;;;;;0.95;0.20;;;5.20;99.90;;;;;;4986553;28;20204;-66
2023/03/06 11:04:58;;;;;;;2.35;0.52;;;5.20;99.90;;;;;;4999357;28;20314;-66
2023/03/06 11:07:32;;;;;;;0.88;0.20;;;5.30;99.90;;;;;;5005672;28;20080;-66
2023/03/06 11:09:57;;;;;;;1.10;0.22;;;5.20;99.90;;;;;;4985543;28;20450;-66
2023/03/06 11:12:29;;;;;;;4.30;0.50;;;5.20;99.90;;;;;;4986468;28;20037;-66
2023/03/06 11:15:13;;;;;;;0.65;0.20;;;5.20;99.90;;;;;;5003271;28;20450;-66
2023/03/06 11:17:57;;;;;;;1.27;0.20;;;5.20;99.90;;;;;;4988322;28;20045;-65
2023/03/06 11:20:44;;;;;;;0.60;0.20;;;5.20;99.90;;;;;;5004643;28;20621;-66
2023/03/06 11:23:10;;;;;;;;;;;5.40;99.90;;;;;;4986757;28;20072;-68
2023/03/06 11:25:50;;;;;;;1.45;0.10;;;5.50;99.90;;;;;;4996667;28;20420;-66
2023/03/06 11:28:43;;;;;;;0.60;0.30;;;5.50;99.90;;;;;;4993889;28;20042;-66
2023/03/06 11:31:17;;;;;;;2.47;0.43;;;5.60;99.90;;;;;;4987520;28;20414;-66
2023/03/06 11:34:03;;;;;;;0.60;0.40;;;5.80;99.90;;;;;;4984254;28;20126;-65
2023/03/06 11:36:42;;;;;;;1.73;0.40;;;6.00;99.90;;;;;;4984587;28;20090;-66
2023/03/06 11:39:35;;;;;;;2.92;0.20;;;6.30;99.90;;;;;;4999598;28;20057;-66
2023/03/06 11:42:14;;;;;;;1.05;0.35;;;6.50;99.90;;;;;;5000595;28;20073;-66
2023/03/06 11:44:48;;;;;;;3.33;0.40;;;6.60;99.90;;;;;;4999752;28;20064;-66
2023/03/06 11:47:18;;;;;;;1.52;0.28;;;6.70;99.90;;;;;;4981243;28;20053;-66
2023/03/06 11:50:03;;;;;;;0.88;0.22;;;6.80;99.90;;;;;;5000361;28;20065;-67
2023/03/06 11:52:51;;;;;;;2.10;0.30;;;6.90;99.90;;;;;;4983312;28;20048;-67
2023/03/06 11:55:37;;;;;;;2.03;0.60;;;7.00;99.90;;;;;;4968182;28;20046;-67
2023/03/06 11:58:21;;;;;;;4.30;1.08;;;7.10;99.90;;;;;;4999826;28;20124;-67
2023/03/06 12:01:01;;;;;;;0.52;0.20;;;7.20;99.90;;;;;;4989498;28;20042;-67
2023/03/06 12:03:45;;;;;;;2.05;0.28;;;7.20;99.90;;;;;;4981961;28;20042;-67
2023/03/06 12:06:37;;;;;;;0.70;0.20;;;7.30;99.90;;;;;;4982104;28;20458;-67
2023/03/06 12:09:12;;;;;;;1.60;0.45;;;7.30;99.90;;;;;;4988815;28;20107;-67
2023/03/06 12:11:55;;;;;;;1.42;0.10;;;7.30;99.90;;;;;;4984712;28;20081;-67
2023/03/06 12:14:21;;;;;;;0.45;0.13;;;7.30;99.90;;;;;;4982331;28;20116;-67
2023/03/06 12:17:07;;;;;;;1.07;0.20;;;7.30;99.90;;;;;;4993634;28;20173;-67
2023/03/06 12:19:50;;;;;;;0.73;0.40;;;7.40;99.90;;;;;;4980182;28;20393;-67
2023/03/06 12:22:44;;;;;;;1.05;0.20;;;7.50;99.90;;;;;;4999531;28;20106;-67
2023/03/06 12:25:30;;;;;;;0.70;0.20;;;7.60;99.90;;;;;;4999424;28;20034;-67
2023/03/06 12:28:27;;;;;;;2.47;0.15;;;7.60;99.90;;;;;;4984605;28;20053;-67
2023/03/06 12:31:14;;;;;;;1.13;0.10;;;7.80;99.90;;;;;;4995726;28;20393;-68
2023/03/06 12:34:22;;;;;;;0.63;0.20;;;7.90;99.90;;;;;;4980376;28;20362;-68
2023/03/06 12:37:14;;;;;;;0.52;0.15;;;8.00;99.90;;;;;;4958845;28;20143;-67
2023/03/06 12:40:05;;;;;;;0.47;0.10;;;8.10;99.90;;;;;;5000256;28;20171;-67
2023/03/06 12:42:43;;;;;;;2.05;0.38;;;8.20;99.90;;;;;;4975596;28;20129;-67
2023/03/06 12:45:27;;;;;;;0.68;0.30;;;8.10;99.90;;;;;;4983086;28;20329;-68
2023/03/06 12:47:55;;;;;;;0.40;0.22;;;8.10;99.90;;;;;;4997743;28;20037;-68
2023/03/06 12:50:30;;;;;;;2.47;0.20;;;8.00;99.90;;;;;;4970536;28;20402;-67
2023/03/06 12:53:07;;;;;;;6.38;0.70;;;7.90;99.90;;;;;;4983914;28;20096;-67
2023/03/06 12:55:41;;;;;;;;;;;7.90;99.90;;;;;;4999802;28;20043;-67
2023/03/06 12:58:31;;;;;;;0.93;0.40;;;8.00;99.90;;;;;;4992050;28;20661;-67
2023/03/06 13:01:50;;;;;;;1.35;0.35;;;8.00;99.90;;;;;;5001448;28;20302;-68
2023/03/06 13:04:40;;;;;;;1.42;0.22;;;8.10;99.90;;;;;;4920310;29;20056;-67
2023/03/06 13:07:39;;;;;;;1.05;0.32;;;8.10;99.90;;;;;;4907656;29;20143;-67
2023/03/06 13:10:32;;;;;;;1.05;0.50;;;8.00;99.90;;;;;;4969097;28;20115;-67
2023/03/06 13:13:29;;;;;;;1.33;0.28;;;7.90;99.90;;;;;;5004830;28;20552;-67
2023/03/06 13:16:10;;;;;;;3.22;0.30;;;7.80;99.90;;;;;;5007631;28;20045;-69
2023/03/06 13:18:36;;;;;;;0.80;0.28;;;7.90;99.90;;;;;;5001641;28;20636;-67
2023/03/06 13:21:03;;;;;;;1.13;0.32;;;7.70;99.90;;;;;;4981341;28;20058;-67
2023/03/06 13:23:31;;;;;;;1.73;0.50;;;7.70;99.90;;;;;;5007519;28;20045;-67